sensor_id;sensor_type;location;lat;lon;timestamp;pressure;altitude;pressure_sealevel;temperature;humidity
32933;BME280;19444;50.518;10.870;2024-01-15T00:02:47;95010.63;;;-1.49;100.00
32933;BME280;19444;50.518;10.870;2024-01-15T00:05:44;95003.63;;;-1.89;100.00
32933;BME280;19444;50.518;10.870;2024-01-15T00:08:41;95000.63;;;-1.47;100.00
32933;BME280;19444;50.518;10.870;2024-01-15T00:11:38;95005.81;;;-1.31;100.00
32933;BME280;19444;50.518;10.870;2024-01-15T00:14:35;94995.13;;;-1.50;100.00
32933;BME280;19444;50.518;10.870;2024-01-15T00:17:32;94995.63;;;-1.48;100.00
32933;BME280;19444;50.518;10.870;2024-01-15T00:20:29;94984.69;;;-1.70;100.00
32933;BME280;19444;50.518;10.870;2024-01-15T00:23:26;94979.91;;;-1.53;100.00
32933;BME280;19444;50.518;10.870;2024-01-15T00:26:23;94982.03;;;-1.55;100.00
32933;BME280;19444;50.518;10.870;2024-01-15T00:29:20;94984.66;;;-1.55;100.00
32933;BME280;19444;50.518;10.870;2024-01-15T00:32:17;94980.25;;;-1.85;100.00
32933;BME280;19444;50.518;10.870;2024-01-15T00:35:14;94989.69;;;-1.84;100.00
32933;BME280;19444;50.518;10.870;2024-01-15T00:38:11;94983.44;;;-2.09;100.00
32933;BME280;19444;50.518;10.870;2024-01-15T00:41:08;94984.25;;;-2.39;100.00
32933;BME280;19444;50.518;10.870;2024-01-15T00:44:05;94996.06;;;-2.26;100.00
32933;BME280;19444;50.518;10.870;2024-01-15T00:47:02;94988.69;;;-2.04;100.00
32933;BME280;19444;50.518;10.870;2024-01-15T00:49:59;94979.50;;;-2.21;100.00
32933;BME280;19444;50.518;10.870;2024-01-15T00:52:56;94974.75;;;-1.94;100.00
32933;BME280;19444;50.518;10.870;2024-01-15T00:55:53;94971.66;;;-2.52;100.00
32933;BME280;19444;50.518;10.870;2024-01-15T00:58:49;94979.81;;;-2.28;100.00
32933;BME280;19444;50.518;10.870;2024-01-15T01:01:46;94975.09;;;-2.36;100.00
32933;BME280;19444;50.518;10.870;2024-01-15T01:04:43;94971.63;;;-2.21;100.00
32933;BME280;19444;50.518;10.870;2024-01-15T01:07:40;94977.94;;;-2.22;100.00
32933;BME280;19444;50.518;10.870;2024-01-15T01:10:37;94961.94;;;-2.31;100.00
32933;BME280;19444;50.518;10.870;2024-01-15T01:13:34;94960.63;;;-2.23;100.00
32933;BME280;19444;50.518;10.870;2024-01-15T01:16:31;94964.25;;;-1.94;100.00
32933;BME280;19444;50.518;10.870;2024-01-15T01:19:35;94964.72;;;-1.77;100.00
32933;BME280;19444;50.518;10.870;2024-01-15T01:22:32;94968.19;;;-2.02;100.00
32933;BME280;19444;50.518;10.870;2024-01-15T01:25:29;94979.78;;;-2.08;100.00
32933;BME280;19444;50.518;10.870;2024-01-15T01:28:26;94983.19;;;-2.22;100.00
32933;BME280;19444;50.518;10.870;2024-01-15T01:31:23;94979.50;;;-2.01;100.00
32933;BME280;19444;50.518;10.870;2024-01-15T01:34:20;94987.91;;;-2.09;100.00
32933;BME280;19444;50.518;10.870;2024-01-15T01:37:18;94970.34;;;-2.19;100.00
32933;BME280;19444;50.518;10.870;2024-01-15T01:40:15;94974.78;;;-2.04;100.00
32933;BME280;19444;50.518;10.870;2024-01-15T01:43:12;94977.19;;;-2.28;100.00
32933;BME280;19444;50.518;10.870;2024-01-15T01:46:09;94972.19;;;-2.24;100.00
32933;BME280;19444;50.518;10.870;2024-01-15T01:49:07;94968.41;;;-1.78;100.00
32933;BME280;19444;50.518;10.870;2024-01-15T01:52:06;94962.81;;;-1.46;100.00
32933;BME280;19444;50.518;10.870;2024-01-15T01:55:04;94967.16;;;-2.01;100.00
32933;BME280;19444;50.518;10.870;2024-01-15T01:58:04;94976.03;;;-1.76;100.00
32933;BME280;19444;50.518;10.870;2024-01-15T02:01:01;94970.72;;;-1.61;100.00
32933;BME280;19444;50.518;10.870;2024-01-15T02:03:58;94959.34;;;-1.36;100.00
32933;BME280;19444;50.518;10.870;2024-01-15T02:06:55;94963.91;;;-1.67;100.00
32933;BME280;19444;50.518;10.870;2024-01-15T02:09:53;94964.66;;;-1.56;100.00
32933;BME280;19444;50.518;10.870;2024-01-15T02:12:50;94964.66;;;-1.56;100.00
32933;BME280;19444;50.518;10.870;2024-01-15T02:15:46;94964.97;;;-1.63;100.00
32933;BME280;19444;50.518;10.870;2024-01-15T02:18:45;94974.78;;;-1.29;100.00
32933;BME280;19444;50.518;10.870;2024-01-15T02:21:43;94978.44;;;-2.05;100.00
32933;BME280;19444;50.518;10.870;2024-01-15T02:24:40;94969.41;;;-0.99;100.00
32933;BME280;19444;50.518;10.870;2024-01-15T02:27:37;94967.47;;;-1.37;100.00
32933;BME280;19444;50.518;10.870;2024-01-15T02:30:37;94964.22;;;-1.09;100.00
32933;BME280;19444;50.518;10.870;2024-01-15T02:33:36;94967.03;;;-1.55;100.00
32933;BME280;19444;50.518;10.870;2024-01-15T02:36:33;94958.78;;;-1.28;100.00
32933;BME280;19444;50.518;10.870;2024-01-15T02:39:30;94962.03;;;-1.56;100.00
32933;BME280;19444;50.518;10.870;2024-01-15T02:42:27;94964.47;;;-1.10;100.00
32933;BME280;19444;50.518;10.870;2024-01-15T02:45:24;94963.84;;;-1.47;100.00
32933;BME280;19444;50.518;10.870;2024-01-15T02:48:21;94966.97;;;-1.34;100.00
32933;BME280;19444;50.518;10.870;2024-01-15T02:51:18;94963.72;;;-1.21;100.00
32933;BME280;19444;50.518;10.870;2024-01-15T02:54:15;94966.66;;;-1.28;100.00
32933;BME280;19444;50.518;10.870;2024-01-15T02:57:12;94968.16;;;-1.11;100.00
32933;BME280;19444;50.518;10.870;2024-01-15T03:00:09;94963.50;;;-1.25;100.00
32933;BME280;19444;50.518;10.870;2024-01-15T03:03:06;94964.44;;;-1.05;100.00
32933;BME280;19444;50.518;10.870;2024-01-15T03:06:04;94967.13;;;-1.16;100.00
32933;BME280;19444;50.518;10.870;2024-01-15T03:09:01;94971.16;;;-1.38;100.00
32933;BME280;19444;50.518;10.870;2024-01-15T03:11:58;94966.72;;;-1.43;100.00
32933;BME280;19444;50.518;10.870;2024-01-15T03:14:55;94960.75;;;-1.04;100.00
32933;BME280;19444;50.518;10.870;2024-01-15T03:17:51;94950.22;;;-0.65;100.00
32933;BME280;19444;50.518;10.870;2024-01-15T03:20:49;94962.03;;;-0.58;100.00
32933;BME280;19444;50.518;10.870;2024-01-15T03:23:45;94963.13;;;-0.64;100.00
32933;BME280;19444;50.518;10.870;2024-01-15T03:26:42;94957.69;;;-0.72;100.00
32933;BME280;19444;50.518;10.870;2024-01-15T03:29:40;94958.41;;;-1.11;100.00
32933;BME280;19444;50.518;10.870;2024-01-15T03:32:37;94967.00;;;-1.45;100.00
32933;BME280;19444;50.518;10.870;2024-01-15T03:35:34;94957.53;;;-0.91;100.00
32933;BME280;19444;50.518;10.870;2024-01-15T03:38:31;94956.94;;;-1.32;100.00
32933;BME280;19444;50.518;10.870;2024-01-15T03:41:28;94956.81;;;-1.66;100.00
32933;BME280;19444;50.518;10.870;2024-01-15T03:44:25;94952.31;;;-1.01;100.00
32933;BME280;19444;50.518;10.870;2024-01-15T03:47:22;94954.66;;;-0.95;100.00
32933;BME280;19444;50.518;10.870;2024-01-15T03:50:19;94952.31;;;-1.01;100.00
32933;BME280;19444;50.518;10.870;2024-01-15T03:53:16;94958.19;;;-1.15;100.00
32933;BME280;19444;50.518;10.870;2024-01-15T03:56:13;94959.13;;;-1.45;100.00
32933;BME280;19444;50.518;10.870;2024-01-15T03:59:10;94959.41;;;-0.97;100.00
32933;BME280;19444;50.518;10.870;2024-01-15T04:02:07;94947.81;;;-0.96;100.00
32933;BME280;19444;50.518;10.870;2024-01-15T04:05:04;94930.72;;;-0.59;100.00
32933;BME280;19444;50.518;10.870;2024-01-15T04:08:01;94942.69;;;-1.21;100.00
32933;BME280;19444;50.518;10.870;2024-01-15T04:10:58;94930.47;;;-0.97;100.00
32933;BME280;19444;50.518;10.870;2024-01-15T04:13:55;94936.47;;;-2.10;100.00
32933;BME280;19444;50.518;10.870;2024-01-15T04:16:52;94924.91;;;-0.90;100.00
32933;BME280;19444;50.518;10.870;2024-01-15T04:19:49;94931.41;;;-1.81;100.00
32933;BME280;19444;50.518;10.870;2024-01-15T04:22:46;94914.56;;;-1.21;100.00
32933;BME280;19444;50.518;10.870;2024-01-15T04:25:43;94920.38;;;-0.79;100.00
32933;BME280;19444;50.518;10.870;2024-01-15T04:28:40;94930.69;;;-1.32;100.00
32933;BME280;19444;50.518;10.870;2024-01-15T04:31:37;94928.06;;;-2.12;100.00
32933;BME280;19444;50.518;10.870;2024-01-15T04:34:34;94928.88;;;-1.37;100.00
32933;BME280;19444;50.518;10.870;2024-01-15T04:37:31;94941.06;;;-1.61;100.00
32933;BME280;19444;50.518;10.870;2024-01-15T04:40:28;94936.53;;;-1.51;100.00
32933;BME280;19444;50.518;10.870;2024-01-15T04:43:25;94932.81;;;-2.14;100.00
32933;BME280;19444;50.518;10.870;2024-01-15T04:46:22;94939.63;;;-2.23;100.00
32933;BME280;19444;50.518;10.870;2024-01-15T04:49:18;94926.94;;;-1.86;100.00
32933;BME280;19444;50.518;10.870;2024-01-15T04:52:15;94922.69;;;-1.66;100.00
32933;BME280;19444;50.518;10.870;2024-01-15T04:55:13;94922.78;;;-1.92;100.00
32933;BME280;19444;50.518;10.870;2024-01-15T04:58:09;94913.84;;;-1.96;100.00
32933;BME280;19444;50.518;10.870;2024-01-15T05:01:08;94906.22;;;-1.82;100.00
32933;BME280;19444;50.518;10.870;2024-01-15T05:04:05;94908.34;;;-1.94;100.00
32933;BME280;19444;50.518;10.870;2024-01-15T05:07:03;94913.63;;;-1.99;100.00
32933;BME280;19444;50.518;10.870;2024-01-15T05:10:00;94891.50;;;-1.83;100.00
32933;BME280;19444;50.518;10.870;2024-01-15T05:12:57;94910.25;;;-1.46;100.00
32933;BME280;19444;50.518;10.870;2024-01-15T05:15:54;94919.22;;;-1.52;100.00
32933;BME280;19444;50.518;10.870;2024-01-15T05:18:51;94918.53;;;-1.73;100.00
32933;BME280;19444;50.518;10.870;2024-01-15T05:21:48;94916.72;;;-1.82;100.00
32933;BME280;19444;50.518;10.870;2024-01-15T05:24:45;94897.28;;;-1.86;100.00
32933;BME280;19444;50.518;10.870;2024-01-15T05:27:42;94901.75;;;-1.82;100.00
32933;BME280;19444;50.518;10.870;2024-01-15T05:30:39;94898.22;;;-1.57;100.00
32933;BME280;19444;50.518;10.870;2024-01-15T05:33:36;94895.59;;;-1.57;100.00
32933;BME280;19444;50.518;10.870;2024-01-15T05:36:33;94897.97;;;-1.65;100.00
32933;BME280;19444;50.518;10.870;2024-01-15T05:39:30;94895.34;;;-1.60;100.00
32933;BME280;19444;50.518;10.870;2024-01-15T05:42:27;94888.63;;;-1.27;100.00
32933;BME280;19444;50.518;10.870;2024-01-15T05:45:26;94881.75;;;-1.28;100.00
32933;BME280;19444;50.518;10.870;2024-01-15T05:48:24;94889.81;;;-1.59;100.00
32933;BME280;19444;50.518;10.870;2024-01-15T05:51:21;94887.22;;;-1.64;100.00
32933;BME280;19444;50.518;10.870;2024-01-15T05:54:19;94889.50;;;-2.22;100.00
32933;BME280;19444;50.518;10.870;2024-01-15T05:57:16;94890.28;;;-2.06;100.00
32933;BME280;19444;50.518;10.870;2024-01-15T06:00:13;94899.75;;;-2.10;100.00
32933;BME280;19444;50.518;10.870;2024-01-15T06:03:11;94893.69;;;-2.11;100.00
32933;BME280;19444;50.518;10.870;2024-01-15T06:06:09;94896.88;;;-2.29;100.00
32933;BME280;19444;50.518;10.870;2024-01-15T06:09:06;94892.78;;;-1.76;100.00
32933;BME280;19444;50.518;10.870;2024-01-15T06:12:07;94893.63;;;-1.90;100.00
32933;BME280;19444;50.518;10.870;2024-01-15T06:15:04;94887.19;;;-2.28;100.00
32933;BME280;19444;50.518;10.870;2024-01-15T06:18:01;94887.00;;;-1.78;100.00
32933;BME280;19444;50.518;10.870;2024-01-15T06:20:58;94896.06;;;-2.09;100.00
32933;BME280;19444;50.518;10.870;2024-01-15T06:23:55;94888.69;;;-2.12;100.00
32933;BME280;19444;50.518;10.870;2024-01-15T06:26:53;94891.13;;;-2.26;100.00
32933;BME280;19444;50.518;10.870;2024-01-15T06:29:50;94876.66;;;-2.23;100.00
32933;BME280;19444;50.518;10.870;2024-01-15T06:32:50;94873.19;;;-2.04;100.00
32933;BME280;19444;50.518;10.870;2024-01-15T06:35:55;94872.44;;;-2.09;100.00
32933;BME280;19444;50.518;10.870;2024-01-15T06:38:53;94864.72;;;-1.80;100.00
32933;BME280;19444;50.518;10.870;2024-01-15T06:41:49;94868.16;;;-1.90;100.00
32933;BME280;19444;50.518;10.870;2024-01-15T06:44:46;94878.19;;;-2.07;100.00
32933;BME280;19444;50.518;10.870;2024-01-15T06:47:43;94888.16;;;-2.04;100.00
32933;BME280;19444;50.518;10.870;2024-01-15T06:50:40;94878.97;;;-2.02;100.00
32933;BME280;19444;50.518;10.870;2024-01-15T06:53:37;94885.81;;;-2.06;100.00
32933;BME280;19444;50.518;10.870;2024-01-15T06:56:34;94875.06;;;-2.14;100.00
32933;BME280;19444;50.518;10.870;2024-01-15T06:59:31;94866.88;;;-1.97;100.00
32933;BME280;19444;50.518;10.870;2024-01-15T07:02:28;94867.22;;;-2.19;100.00
32933;BME280;19444;50.518;10.870;2024-01-15T07:05:25;94868.75;;;-2.13;100.00
32933;BME280;19444;50.518;10.870;2024-01-15T07:08:22;94859.50;;;-1.90;100.00
32933;BME280;19444;50.518;10.870;2024-01-15T07:11:19;94865.31;;;-2.04;100.00
32933;BME280;19444;50.518;10.870;2024-01-15T07:14:16;94878.69;;;-1.95;100.00
32933;BME280;19444;50.518;10.870;2024-01-15T07:17:13;94887.28;;;-1.84;100.00
32933;BME280;19444;50.518;10.870;2024-01-15T07:20:10;94887.13;;;-2.08;100.00
32933;BME280;19444;50.518;10.870;2024-01-15T07:23:07;94887.13;;;-2.13;100.00
32933;BME280;19444;50.518;10.870;2024-01-15T07:26:04;94894.22;;;-2.09;100.00
32933;BME280;19444;50.518;10.870;2024-01-15T07:29:01;94903.97;;;-2.19;100.00
32933;BME280;19444;50.518;10.870;2024-01-15T07:31:59;94897.84;;;-1.89;100.00
32933;BME280;19444;50.518;10.870;2024-01-15T07:34:57;94899.00;;;-1.56;100.00
32933;BME280;19444;50.518;10.870;2024-01-15T07:37:54;94897.09;;;-2.05;100.00
32933;BME280;19444;50.518;10.870;2024-01-15T07:40:51;94892.38;;;-2.08;100.00
32933;BME280;19444;50.518;10.870;2024-01-15T07:43:48;94896.31;;;-2.11;100.00
32933;BME280;19444;50.518;10.870;2024-01-15T07:46:46;94893.06;;;-1.77;100.00
32933;BME280;19444;50.518;10.870;2024-01-15T07:49:43;94903.31;;;-1.86;100.00
32933;BME280;19444;50.518;10.870;2024-01-15T07:52:40;94902.56;;;-1.96;100.00
32933;BME280;19444;50.518;10.870;2024-01-15T07:55:40;94916.19;;;-1.84;100.00
32933;BME280;19444;50.518;10.870;2024-01-15T07:58:37;94917.53;;;-1.92;100.00
32933;BME280;19444;50.518;10.870;2024-01-15T08:01:34;94922.41;;;-1.65;100.00
32933;BME280;19444;50.518;10.870;2024-01-15T08:04:31;94915.63;;;-1.76;100.00
32933;BME280;19444;50.518;10.870;2024-01-15T08:07:28;94918.78;;;-1.79;100.00
32933;BME280;19444;50.518;10.870;2024-01-15T08:10:25;94913.13;;;-1.37;100.00
32933;BME280;19444;50.518;10.870;2024-01-15T08:13:22;94923.47;;;-1.66;100.00
32933;BME280;19444;50.518;10.870;2024-01-15T08:16:19;94918.56;;;-1.93;100.00
32933;BME280;19444;50.518;10.870;2024-01-15T08:19:16;94918.03;;;-1.85;100.00
32933;BME280;19444;50.518;10.870;2024-01-15T08:22:13;94927.00;;;-2.01;100.00
32933;BME280;19444;50.518;10.870;2024-01-15T08:25:11;94932.72;;;-1.84;100.00
32933;BME280;19444;50.518;10.870;2024-01-15T08:28:07;94915.72;;;-2.07;100.00
32933;BME280;19444;50.518;10.870;2024-01-15T08:31:05;94923.41;;;-1.56;100.00
32933;BME280;19444;50.518;10.870;2024-01-15T08:34:02;94921.97;;;-1.87;100.00
32933;BME280;19444;50.518;10.870;2024-01-15T08:36:59;94920.56;;;-1.59;100.00
32933;BME280;19444;50.518;10.870;2024-01-15T08:39:56;94923.81;;;-1.88;100.00
32933;BME280;19444;50.518;10.870;2024-01-15T08:42:53;94923.97;;;-1.59;100.00
32933;BME280;19444;50.518;10.870;2024-01-15T08:45:50;94924.56;;;-1.72;100.00
32933;BME280;19444;50.518;10.870;2024-01-15T08:48:47;94921.84;;;-1.57;100.00
32933;BME280;19444;50.518;10.870;2024-01-15T08:51:44;94918.97;;;-1.55;100.00
32933;BME280;19444;50.518;10.870;2024-01-15T08:54:41;94923.84;;;-1.98;100.00
32933;BME280;19444;50.518;10.870;2024-01-15T08:57:38;94930.09;;;-1.84;100.00
32933;BME280;19444;50.518;10.870;2024-01-15T09:00:36;94911.63;;;-1.58;100.00
32933;BME280;19444;50.518;10.870;2024-01-15T09:03:33;94930.28;;;-1.65;100.00
32933;BME280;19444;50.518;10.870;2024-01-15T09:06:30;94926.31;;;-1.57;100.00
32933;BME280;19444;50.518;10.870;2024-01-15T09:09:27;94910.88;;;-1.74;100.00
32933;BME280;19444;50.518;10.870;2024-01-15T09:12:25;94901.97;;;-1.78;100.00
32933;BME280;19444;50.518;10.870;2024-01-15T09:15:23;94903.63;;;-1.38;100.00
32933;BME280;19444;50.518;10.870;2024-01-15T09:18:20;94898.88;;;-1.90;100.00
32933;BME280;19444;50.518;10.870;2024-01-15T09:21:17;94908.47;;;-1.55;100.00
32933;BME280;19444;50.518;10.870;2024-01-15T09:24:14;94916.34;;;-1.55;100.00
32933;BME280;19444;50.518;10.870;2024-01-15T09:27:23;94920.53;;;-1.54;100.00
32933;BME280;19444;50.518;10.870;2024-01-15T09:30:20;94915.66;;;-1.81;100.00
32933;BME280;19444;50.518;10.870;2024-01-15T09:33:17;94912.91;;;-1.56;100.00
32933;BME280;19444;50.518;10.870;2024-01-15T09:36:14;94923.97;;;-1.54;100.00
32933;BME280;19444;50.518;10.870;2024-01-15T09:39:11;94916.19;;;-1.30;100.00
32933;BME280;19444;50.518;10.870;2024-01-15T09:42:09;94915.81;;;-1.57;100.00
32933;BME280;19444;50.518;10.870;2024-01-15T09:45:08;94919.88;;;-1.31;100.00
32933;BME280;19444;50.518;10.870;2024-01-15T09:48:06;94908.94;;;-1.48;100.00
32933;BME280;19444;50.518;10.870;2024-01-15T09:51:04;94912.88;;;-1.46;100.00
32933;BME280;19444;50.518;10.870;2024-01-15T09:54:03;94909.53;;;-1.12;100.00
32933;BME280;19444;50.518;10.870;2024-01-15T09:57:01;94904.63;;;-1.29;100.00
32933;BME280;19444;50.518;10.870;2024-01-15T10:00:00;94913.13;;;-1.37;100.00
32933;BME280;19444;50.518;10.870;2024-01-15T10:03:00;94905.97;;;-1.31;100.00
32933;BME280;19444;50.518;10.870;2024-01-15T10:05:59;94906.63;;;-1.10;100.00
32933;BME280;19444;50.518;10.870;2024-01-15T10:08:57;94899.06;;;-1.17;100.00
32933;BME280;19444;50.518;10.870;2024-01-15T10:11:57;94898.28;;;-1.18;100.00
32933;BME280;19444;50.518;10.870;2024-01-15T10:14:55;94889.94;;;-0.91;100.00
32933;BME280;19444;50.518;10.870;2024-01-15T10:17:53;94880.25;;;-0.95;100.00
32933;BME280;19444;50.518;10.870;2024-01-15T10:20:50;94877.97;;;-0.73;100.00
32933;BME280;19444;50.518;10.870;2024-01-15T10:23:47;94865.72;;;-0.88;100.00
32933;BME280;19444;50.518;10.870;2024-01-15T10:26:44;94867.31;;;-1.26;100.00
32933;BME280;19444;50.518;10.870;2024-01-15T10:29:42;94866.34;;;-0.67;100.00
32933;BME280;19444;50.518;10.870;2024-01-15T10:32:39;94855.22;;;-0.59;100.00
32933;BME280;19444;50.518;10.870;2024-01-15T10:35:38;94849.72;;;-0.91;100.00
32933;BME280;19444;50.518;10.870;2024-01-15T10:38:36;94856.19;;;-0.78;100.00
32933;BME280;19444;50.518;10.870;2024-01-15T10:41:34;94854.72;;;-0.95;100.00
32933;BME280;19444;50.518;10.870;2024-01-15T10:44:31;94843.50;;;-0.71;100.00
32933;BME280;19444;50.518;10.870;2024-01-15T10:47:29;94848.66;;;-0.90;100.00
32933;BME280;19444;50.518;10.870;2024-01-15T10:50:26;94848.25;;;-0.73;100.00
32933;BME280;19444;50.518;10.870;2024-01-15T10:53:24;94845.34;;;-0.43;100.00
32933;BME280;19444;50.518;10.870;2024-01-15T10:56:22;94840.97;;;-1.16;100.00
32933;BME280;19444;50.518;10.870;2024-01-15T10:59:20;94833.91;;;-0.86;100.00
32933;BME280;19444;50.518;10.870;2024-01-15T11:02:18;94840.59;;;-1.04;100.00
32933;BME280;19444;50.518;10.870;2024-01-15T11:05:15;94841.78;;;-0.86;100.00
32933;BME280;19444;50.518;10.870;2024-01-15T11:08:17;94842.06;;;-0.59;100.00
32933;BME280;19444;50.518;10.870;2024-01-15T11:11:21;94851.31;;;-0.95;100.00
32933;BME280;19444;50.518;10.870;2024-01-15T11:15:01;94849.09;;;-0.78;100.00
32933;BME280;19444;50.518;10.870;2024-01-15T11:18:00;94841.41;;;-0.74;100.00
32933;BME280;19444;50.518;10.870;2024-01-15T11:21:25;94838.41;;;-0.92;100.00
32933;BME280;19444;50.518;10.870;2024-01-15T11:24:40;94828.53;;;-1.05;100.00
32933;BME280;19444;50.518;10.870;2024-01-15T11:27:51;94824.06;;;-1.04;100.00
32933;BME280;19444;50.518;10.870;2024-01-15T11:30:50;94840.81;;;-0.66;100.00
32933;BME280;19444;50.518;10.870;2024-01-15T11:33:50;94818.03;;;-0.76;100.00
32933;BME280;19444;50.518;10.870;2024-01-15T11:39:48;94819.97;;;-0.87;100.00
32933;BME280;19444;50.518;10.870;2024-01-15T11:42:45;94813.50;;;-0.99;100.00
32933;BME280;19444;50.518;10.870;2024-01-15T11:45:43;94807.00;;;-0.78;100.00
32933;BME280;19444;50.518;10.870;2024-01-15T11:48:43;94818.28;;;-1.06;100.00
32933;BME280;19444;50.518;10.870;2024-01-15T11:51:42;94810.03;;;-0.95;100.00
32933;BME280;19444;50.518;10.870;2024-01-15T11:54:40;94795.50;;;-0.58;100.00
32933;BME280;19444;50.518;10.870;2024-01-15T11:57:54;94800.19;;;-0.79;100.00
32933;BME280;19444;50.518;10.870;2024-01-15T12:00:52;94807.09;;;-1.22;100.00
32933;BME280;19444;50.518;10.870;2024-01-15T12:03:50;94797.41;;;-0.64;100.00
32933;BME280;19444;50.518;10.870;2024-01-15T12:06:47;94779.16;;;-0.55;100.00
32933;BME280;19444;50.518;10.870;2024-01-15T12:09:44;94782.28;;;-0.77;100.00
32933;BME280;19444;50.518;10.870;2024-01-15T12:13:00;94783.38;;;-0.83;100.00
32933;BME280;19444;50.518;10.870;2024-01-15T12:15:57;94789.28;;;-0.67;100.00
32933;BME280;19444;50.518;10.870;2024-01-15T12:18:54;94794.22;;;-0.37;100.00
32933;BME280;19444;50.518;10.870;2024-01-15T12:21:51;94794.53;;;-0.96;100.00
32933;BME280;19444;50.518;10.870;2024-01-15T12:24:48;94783.59;;;-0.50;100.00
32933;BME280;19444;50.518;10.870;2024-01-15T12:27:46;94785.94;;;-0.73;100.00
32933;BME280;19444;50.518;10.870;2024-01-15T12:30:46;94784.25;;;-0.93;100.00
32933;BME280;19444;50.518;10.870;2024-01-15T12:33:47;94780.84;;;-0.40;100.00
32933;BME280;19444;50.518;10.870;2024-01-15T12:36:46;94777.56;;;-0.80;100.00
32933;BME280;19444;50.518;10.870;2024-01-15T12:39:44;94773.28;;;-0.71;100.00
32933;BME280;19444;50.518;10.870;2024-01-15T12:42:41;94774.44;;;-0.82;100.00
32933;BME280;19444;50.518;10.870;2024-01-15T12:45:38;94772.25;;;-0.75;100.00
32933;BME280;19444;50.518;10.870;2024-01-15T12:48:35;94776.44;;;-0.74;100.00
32933;BME280;19444;50.518;10.870;2024-01-15T12:51:34;94774.44;;;-0.58;100.00
32933;BME280;19444;50.518;10.870;2024-01-15T12:54:31;94783.59;;;-0.26;100.00
32933;BME280;19444;50.518;10.870;2024-01-15T12:57:28;94787.78;;;-0.49;100.00
32933;BME280;19444;50.518;10.870;2024-01-15T13:00:25;94781.38;;;-0.67;100.00
32933;BME280;19444;50.518;10.870;2024-01-15T13:03:23;94783.31;;;-0.49;100.00
32933;BME280;19444;50.518;10.870;2024-01-15T13:06:20;94772.16;;;-0.94;100.00
32933;BME280;19444;50.518;10.870;2024-01-15T13:09:17;94775.91;;;-0.47;100.00
32933;BME280;19444;50.518;10.870;2024-01-15T13:12:14;94778.91;;;-0.11;100.00
32933;BME280;19444;50.518;10.870;2024-01-15T13:15:11;94776.03;;;-0.86;100.00
32933;BME280;19444;50.518;10.870;2024-01-15T13:18:11;94768.63;;;-0.31;100.00
32933;BME280;19444;50.518;10.870;2024-01-15T13:21:09;94769.13;;;-0.77;100.00
32933;BME280;19444;50.518;10.870;2024-01-15T13:24:06;94771.31;;;-0.60;100.00
32933;BME280;19444;50.518;10.870;2024-01-15T13:27:03;94767.13;;;-0.61;100.00
32933;BME280;19444;50.518;10.870;2024-01-15T13:30:01;94754.97;;;-0.33;100.00
32933;BME280;19444;50.518;10.870;2024-01-15T13:32:58;94771.78;;;-0.53;100.00
32933;BME280;19444;50.518;10.870;2024-01-15T13:36:00;94764.88;;;-0.49;100.00
32933;BME280;19444;50.518;10.870;2024-01-15T13:38:57;94768.97;;;-0.38;100.00
32933;BME280;19444;50.518;10.870;2024-01-15T13:41:55;94766.72;;;-0.73;100.00
32933;BME280;19444;50.518;10.870;2024-01-15T13:44:52;94769.63;;;-0.75;100.00
32933;BME280;19444;50.518;10.870;2024-01-15T13:47:49;94765.22;;;-0.55;100.00
32933;BME280;19444;50.518;10.870;2024-01-15T13:50:46;94770.75;;;-0.57;100.00
32933;BME280;19444;50.518;10.870;2024-01-15T13:53:44;94780.69;;;-0.25;100.00
32933;BME280;19444;50.518;10.870;2024-01-15T13:56:41;94783.59;;;-0.50;100.00
32933;BME280;19444;50.518;10.870;2024-01-15T13:59:39;94784.91;;;-0.77;100.00
32933;BME280;19444;50.518;10.870;2024-01-15T14:02:36;94802.31;;;-0.81;100.00
32933;BME280;19444;50.518;10.870;2024-01-15T14:05:33;94795.47;;;-0.82;100.00
32933;BME280;19444;50.518;10.870;2024-01-15T14:08:30;94801.25;;;-0.56;100.00
32933;BME280;19444;50.518;10.870;2024-01-15T14:11:27;94803.88;;;-0.56;100.00
32933;BME280;19444;50.518;10.870;2024-01-15T14:14:23;94810.09;;;-0.71;100.00
32933;BME280;19444;50.518;10.870;2024-01-15T14:17:20;94814.59;;;-0.76;100.00
32933;BME280;19444;50.518;10.870;2024-01-15T14:20:17;94811.50;;;-0.83;100.00
32933;BME280;19444;50.518;10.870;2024-01-15T14:23:18;94815.25;;;-0.61;100.00
32933;BME280;19444;50.518;10.870;2024-01-15T14:26:15;94812.53;;;-0.79;100.00
32933;BME280;19444;50.518;10.870;2024-01-15T14:29:13;94807.47;;;-0.71;100.00
32933;BME280;19444;50.518;10.870;2024-01-15T14:32:10;94809.59;;;-0.73;100.00
32933;BME280;19444;50.518;10.870;2024-01-15T14:35:07;94801.94;;;-0.69;100.00
32933;BME280;19444;50.518;10.870;2024-01-15T14:38:07;94811.41;;;-0.73;100.00
32933;BME280;19444;50.518;10.870;2024-01-15T14:41:04;94807.38;;;-0.90;100.00
32933;BME280;19444;50.518;10.870;2024-01-15T14:44:01;94797.97;;;-0.43;100.00
32933;BME280;19444;50.518;10.870;2024-01-15T14:46:58;94800.66;;;-0.24;100.00
32933;BME280;19444;50.518;10.870;2024-01-15T14:49:55;94800.72;;;-0.53;100.00
32933;BME280;19444;50.518;10.870;2024-01-15T14:52:53;94797.72;;;-0.17;100.00
32933;BME280;19444;50.518;10.870;2024-01-15T14:55:50;94808.72;;;-0.39;100.00
32933;BME280;19444;50.518;10.870;2024-01-15T14:58:47;94808.97;;;-0.36;100.00
32933;BME280;19444;50.518;10.870;2024-01-15T15:01:45;94819.59;;;-0.22;100.00
32933;BME280;19444;50.518;10.870;2024-01-15T15:04:42;94806.38;;;-0.41;100.00
32933;BME280;19444;50.518;10.870;2024-01-15T15:07:44;94813.28;;;1.43;100.00
32933;BME280;19444;50.518;10.870;2024-01-15T15:10:41;94819.34;;;1.44;100.00
32933;BME280;19444;50.518;10.870;2024-01-15T15:13:37;94826.75;;;-0.28;100.00
32933;BME280;19444;50.518;10.870;2024-01-15T15:16:41;94825.19;;;-0.29;100.00
32933;BME280;19444;50.518;10.870;2024-01-15T15:19:38;94834.38;;;-0.26;100.00
32933;BME280;19444;50.518;10.870;2024-01-15T15:22:37;94838.03;;;0.02;100.00